Time;durP1;ratioP1;P1;durP2;ratioP2;P2;SDS_P1;SDS_P2;PMS_P1;PMS_P2;Temp;Humidity;BMP_temperature;BMP_pressure;BME280_temperature;BME280_humidity;BME280_pressure;Samples;Min_cycle;Max_cycle;Signal;HPM_P1;HPM_P2
2023/05/24 00:01:24;;;;;;;16.25;4.65;;;8.60;99.90;;;;;;5047223;28;20044;-71
2023/05/24 00:03:51;;;;;;;18.58;4.65;;;8.60;99.90;;;;;;5054357;28;20120;-72
2023/05/24 00:06:17;;;;;;;16.00;4.35;;;8.60;99.90;;;;;;5069657;28;20562;-71
2023/05/24 00:08:42;;;;;;;12.63;4.07;;;8.60;99.90;;;;;;5069843;28;20045;-71
2023/05/24 00:11:09;;;;;;;14.75;4.75;;;8.60;99.90;;;;;;5053034;28;20504;-71
2023/05/24 00:13:35;;;;;;;15.00;3.78;;;8.60;99.90;;;;;;5048841;28;20562;-71
2023/05/24 00:16:01;;;;;;;16.65;4.45;;;8.60;99.90;;;;;;5039170;28;20045;-71
2023/05/24 00:18:30;;;;;;;16.45;4.50;;;8.60;99.90;;;;;;5034225;28;20474;-70
2023/05/24 00:20:58;;;;;;;13.82;3.63;;;8.70;99.90;;;;;;5033883;28;20049;-70
2023/05/24 00:23:26;;;;;;;16.65;3.85;;;8.70;99.90;;;;;;5051260;28;20048;-70
2023/05/24 00:25:52;;;;;;;14.23;4.18;;;8.70;99.90;;;;;;5070367;28;20040;-71
2023/05/24 00:28:18;;;;;;;15.88;4.20;;;8.80;99.90;;;;;;5052964;28;20045;-71
2023/05/24 00:30:43;;;;;;;14.57;4.38;;;8.70;99.90;;;;;;5070132;28;20047;-70
2023/05/24 00:33:09;;;;;;;14.65;4.18;;;8.70;99.90;;;;;;5053434;28;20044;-70
2023/05/24 00:35:35;;;;;;;15.23;3.88;;;8.70;99.90;;;;;;5052100;28;20458;-70
2023/05/24 00:38:00;;;;;;;14.10;4.32;;;8.70;99.90;;;;;;5057459;28;20498;-70
2023/05/24 00:40:26;;;;;;;12.98;3.78;;;8.60;99.90;;;;;;5033604;28;20048;-70
2023/05/24 00:42:52;;;;;;;17.48;4.00;;;8.60;99.90;;;;;;5035282;28;20049;-71
2023/05/24 00:45:17;;;;;;;15.25;4.32;;;8.60;99.90;;;;;;5047625;28;20040;-70
2023/05/24 00:47:44;;;;;;;17.75;4.57;;;8.60;99.90;;;;;;5054748;28;20048;-70
2023/05/24 00:50:15;;;;;;;19.08;4.57;;;8.60;99.90;;;;;;5053220;28;20045;-70
2023/05/24 00:52:42;;;;;;;14.07;4.43;;;8.60;99.90;;;;;;5068841;28;20107;-71
2023/05/24 00:55:08;;;;;;;15.15;4.13;;;8.50;99.90;;;;;;5035886;28;20044;-71
2023/05/24 00:57:37;;;;;;;11.23;3.83;;;8.50;99.90;;;;;;5053319;28;20363;-70
2023/05/24 01:00:04;;;;;;;13.82;3.88;;;8.50;99.90;;;;;;5051642;28;20431;-69
2023/05/24 01:02:31;;;;;;;15.23;4.65;;;8.50;99.90;;;;;;5054102;28;20057;-70
2023/05/24 01:04:58;;;;;;;17.90;5.15;;;8.50;99.90;;;;;;5054830;28;20563;-71
2023/05/24 01:07:39;;;;;;;19.77;5.22;;;8.50;99.90;;;;;;5034296;28;20041;-70
2023/05/24 01:10:10;;;;;;;20.73;4.95;;;8.40;99.90;;;;;;5034161;28;20049;-70
2023/05/24 01:12:51;;;;;;;13.30;4.23;;;8.30;99.90;;;;;;5034291;28;20175;-69
2023/05/24 01:15:32;;;;;;;19.63;4.97;;;8.30;99.90;;;;;;5032836;28;20346;-70
2023/05/24 01:18:17;;;;;;;20.55;5.18;;;8.20;99.90;;;;;;5032981;28;20037;-70
2023/05/24 01:20:45;;;;;;;20.13;5.05;;;8.20;99.90;;;;;;5032524;28;20084;-69
2023/05/24 01:23:27;;;;;;;19.92;4.90;;;8.20;99.90;;;;;;5034748;28;20077;-70
2023/05/24 01:26:11;;;;;;;16.42;5.28;;;8.20;99.90;;;;;;5049725;28;20497;-69
2023/05/24 01:28:38;;;;;;;21.25;4.97;;;8.40;99.90;;;;;;5053724;28;20049;-69
2023/05/24 01:31:05;;;;;;;19.15;5.57;;;8.30;99.90;;;;;;5051579;28;20049;-70
2023/05/24 01:33:31;;;;;;;17.20;4.93;;;8.30;99.90;;;;;;5052386;28;20049;-69
2023/05/24 01:35:57;;;;;;;15.98;4.78;;;8.30;99.90;;;;;;5036468;28;20462;-69
2023/05/24 01:38:22;;;;;;;18.80;4.97;;;8.30;99.90;;;;;;5033726;28;20075;-70
2023/05/24 01:40:52;;;;;;;15.60;4.30;;;8.30;99.90;;;;;;5050747;28;20067;-69
2023/05/24 01:43:25;;;;;;;15.52;4.10;;;8.40;99.90;;;;;;5052183;28;20115;-70
2023/05/24 01:46:20;;;;;;;23.08;5.65;;;8.40;99.90;;;;;;5051564;28;20071;-69
2023/05/24 01:49:18;;;;;;;17.00;5.32;;;8.40;99.90;;;;;;5050782;28;20068;-70
2023/05/24 01:51:50;;;;;;;18.27;5.53;;;8.40;99.90;;;;;;5053604;28;20056;-70
2023/05/24 01:54:22;;;;;;;19.50;5.00;;;8.40;99.90;;;;;;5041087;28;20092;-70
2023/05/24 01:56:48;;;;;;;;;;;8.40;99.90;;;;;;5033835;28;20500;-70
2023/05/24 01:59:14;;;;;;;16.55;4.93;;;8.50;99.90;;;;;;5032160;28;19917;-70
2023/05/24 02:01:40;;;;;;;19.13;4.90;;;8.50;99.90;;;;;;5031589;28;20045;-70
2023/05/24 02:04:06;;;;;;;17.00;4.90;;;8.60;99.90;;;;;;5037034;28;20040;-71
2023/05/24 02:06:32;;;;;;;17.05;4.97;;;8.60;99.90;;;;;;5052124;28;20041;-70
2023/05/24 02:08:57;;;;;;;16.85;5.00;;;8.60;99.90;;;;;;5050217;28;20553;-70
2023/05/24 02:11:23;;;;;;;16.02;4.53;;;8.50;99.90;;;;;;5033196;28;20045;-70
2023/05/24 02:13:48;;;;;;;17.98;4.13;;;8.50;99.90;;;;;;5048437;28;20127;-70
2023/05/24 02:16:14;;;;;;;18.33;4.75;;;8.50;99.90;;;;;;5031573;28;20512;-70
2023/05/24 02:18:43;;;;;;;16.65;4.75;;;8.50;99.90;;;;;;5032728;28;20037;-69
2023/05/24 02:21:09;;;;;;;17.33;4.45;;;8.50;99.90;;;;;;5043584;28;20397;-70
2023/05/24 02:23:35;;;;;;;12.93;4.30;;;8.50;99.90;;;;;;5052195;28;20044;-70
2023/05/24 02:26:00;;;;;;;15.90;4.93;;;8.50;99.90;;;;;;5068745;28;20041;-70
2023/05/24 02:28:27;;;;;;;16.90;4.80;;;8.50;99.90;;;;;;5047597;28;20103;-70
2023/05/24 02:30:52;;;;;;;17.77;4.88;;;8.50;99.90;;;;;;5051674;28;20036;-70
2023/05/24 02:33:18;;;;;;;12.38;4.60;;;8.50;99.90;;;;;;5052757;28;20041;-70
2023/05/24 02:35:43;;;;;;;14.30;4.75;;;8.50;99.90;;;;;;5059758;28;20421;-70
2023/05/24 02:38:09;;;;;;;14.23;3.95;;;8.40;99.90;;;;;;5055993;28;20041;-70
2023/05/24 02:40:35;;;;;;;18.05;4.50;;;8.40;99.90;;;;;;5063964;28;20037;-70
2023/05/24 02:43:00;;;;;;;18.42;4.60;;;8.40;99.90;;;;;;5056014;28;20060;-70
2023/05/24 02:45:26;;;;;;;15.20;4.15;;;8.40;99.90;;;;;;5049127;28;20048;-70
2023/05/24 02:47:51;;;;;;;14.55;4.57;;;8.40;99.90;;;;;;5037394;28;20045;-70
2023/05/24 02:50:17;;;;;;;18.08;5.43;;;8.40;99.90;;;;;;5054133;28;20496;-70
2023/05/24 02:52:42;;;;;;;15.60;4.30;;;8.50;99.90;;;;;;5056711;28;20115;-70
2023/05/24 02:55:08;;;;;;;13.27;4.25;;;8.40;99.90;;;;;;5054507;28;20049;-70
2023/05/24 02:57:34;;;;;;;17.33;4.28;;;8.40;99.90;;;;;;5055388;28;20040;-70
2023/05/24 02:59:59;;;;;;;15.30;5.00;;;8.50;99.90;;;;;;5060681;28;20037;-70
2023/05/24 03:02:27;;;;;;;11.85;4.32;;;8.60;99.90;;;;;;5052639;28;20049;-71
2023/05/24 03:04:53;;;;;;;16.35;4.70;;;8.50;99.90;;;;;;5052888;28;20559;-70
2023/05/24 03:07:19;;;;;;;18.45;4.28;;;8.50;99.90;;;;;;5064844;28;20049;-70
2023/05/24 03:09:45;;;;;;;18.17;4.63;;;8.60;99.90;;;;;;5053126;28;20055;-71
2023/05/24 03:12:11;;;;;;;18.52;5.93;;;8.60;99.90;;;;;;5045621;28;20044;-72
2023/05/24 03:14:37;;;;;;;13.73;4.03;;;8.60;99.90;;;;;;5048623;28;20060;-71
2023/05/24 03:17:03;;;;;;;18.08;5.30;;;8.60;99.90;;;;;;5045409;28;20037;-71
2023/05/24 03:19:28;;;;;;;13.48;4.38;;;8.60;99.90;;;;;;5035216;28;20056;-71
2023/05/24 03:21:54;;;;;;;15.90;5.50;;;8.60;99.90;;;;;;5060434;28;20041;-71
2023/05/24 03:24:20;;;;;;;17.80;4.75;;;8.60;99.90;;;;;;5065509;28;20181;-71
2023/05/24 03:26:45;;;;;;;15.20;5.22;;;8.60;99.90;;;;;;5040637;28;20036;-71
2023/05/24 03:29:11;;;;;;;19.05;4.95;;;8.60;99.90;;;;;;5045446;28;20042;-71
2023/05/24 03:31:37;;;;;;;16.83;4.40;;;8.60;99.90;;;;;;5049476;28;20044;-71
2023/05/24 03:34:02;;;;;;;23.67;6.47;;;8.60;99.90;;;;;;5046490;28;20071;-71
2023/05/24 03:36:28;;;;;;;14.93;4.72;;;8.70;99.90;;;;;;5053384;28;20401;-71
2023/05/24 03:38:54;;;;;;;16.13;4.32;;;8.70;99.90;;;;;;5052329;28;20069;-72
2023/05/24 03:41:19;;;;;;;18.55;4.60;;;8.70;99.90;;;;;;5045203;28;20044;-71
2023/05/24 03:43:45;;;;;;;21.02;5.30;;;8.70;99.90;;;;;;5050609;28;20054;-71
2023/05/24 03:46:11;;;;;;;16.45;5.05;;;8.80;99.90;;;;;;5051265;28;20037;-71
2023/05/24 03:48:36;;;;;;;13.77;3.95;;;8.80;99.90;;;;;;5053694;28;20090;-71
2023/05/24 03:51:02;;;;;;;18.88;5.47;;;8.70;99.90;;;;;;5042782;28;20397;-71
2023/05/24 03:53:28;;;;;;;17.42;4.45;;;8.70;99.90;;;;;;5053278;28;20041;-71
2023/05/24 03:55:54;;;;;;;15.32;4.00;;;8.80;99.90;;;;;;5054556;28;20505;-71
2023/05/24 03:58:19;;;;;;;18.75;5.13;;;8.80;99.90;;;;;;5047071;28;20485;-70
2023/05/24 04:00:45;;;;;;;18.20;4.63;;;8.90;99.90;;;;;;5056815;28;20485;-70
2023/05/24 04:03:11;;;;;;;19.10;5.13;;;8.90;99.90;;;;;;5049913;28;20532;-70
2023/05/24 04:05:36;;;;;;;15.57;4.38;;;8.90;99.90;;;;;;5033895;28;20085;-70
2023/05/24 04:08:03;;;;;;;18.45;4.50;;;8.90;99.90;;;;;;5041667;28;20040;-71
2023/05/24 04:10:28;;;;;;;17.05;5.20;;;8.90;99.90;;;;;;5053913;28;20056;-71
2023/05/24 04:12:55;;;;;;;19.02;5.13;;;9.00;99.90;;;;;;5048692;28;20037;-71
2023/05/24 04:15:22;;;;;;;16.38;4.93;;;9.00;99.90;;;;;;5052621;28;20421;-70
2023/05/24 04:17:53;;;;;;;21.30;4.75;;;9.00;99.90;;;;;;5065858;28;20045;-70
2023/05/24 04:20:19;;;;;;;18.48;4.43;;;9.10;99.90;;;;;;5047137;28;20392;-70
2023/05/24 04:22:45;;;;;;;20.33;4.75;;;9.20;99.90;;;;;;5052991;28;20371;-70
2023/05/24 04:25:10;;;;;;;16.63;4.18;;;9.20;99.90;;;;;;5051579;28;20090;-70
2023/05/24 04:27:36;;;;;;;18.50;4.60;;;9.30;99.90;;;;;;5053050;28;20053;-70
2023/05/24 04:30:02;;;;;;;18.73;4.45;;;9.30;99.90;;;;;;5042160;28;20033;-70
2023/05/24 04:32:29;;;;;;;19.67;4.40;;;9.30;99.90;;;;;;5052384;28;20041;-71
2023/05/24 04:34:55;;;;;;;13.90;4.18;;;9.30;99.90;;;;;;5057743;28;20041;-70
2023/05/24 04:37:21;;;;;;;15.82;4.30;;;9.40;99.90;;;;;;5053487;28;20033;-70
2023/05/24 04:39:47;;;;;;;15.68;3.95;;;9.50;99.90;;;;;;5044076;28;20387;-70
2023/05/24 04:42:12;;;;;;;16.42;4.28;;;9.50;99.90;;;;;;5045245;28;20037;-71
2023/05/24 04:44:41;;;;;;;17.10;4.50;;;9.50;99.90;;;;;;5049542;28;20033;-71
2023/05/24 04:47:08;;;;;;;18.60;4.63;;;9.60;99.90;;;;;;5059187;28;20040;-70
2023/05/24 04:49:34;;;;;;;16.60;4.43;;;9.60;99.90;;;;;;5053296;28;20049;-70
2023/05/24 04:51:59;;;;;;;17.02;4.90;;;9.60;99.90;;;;;;5018842;28;20557;-71
2023/05/24 04:54:25;;;;;;;19.63;4.38;;;9.70;99.90;;;;;;5033170;28;20108;-71
2023/05/24 04:56:51;;;;;;;18.17;4.95;;;9.70;99.90;;;;;;5032494;28;20036;-70
2023/05/24 04:59:16;;;;;;;17.52;4.53;;;9.80;99.90;;;;;;5039005;28;20048;-70
2023/05/24 05:01:42;;;;;;;14.35;3.65;;;9.90;99.90;;;;;;5028229;28;20120;-71
2023/05/24 05:04:07;;;;;;;16.40;3.88;;;9.90;99.90;;;;;;5042060;28;20045;-70
2023/05/24 05:06:37;;;;;;;14.98;4.20;;;9.90;99.90;;;;;;5042739;28;20087;-71
2023/05/24 05:09:04;;;;;;;14.98;3.65;;;10.00;99.90;;;;;;5041838;28;20103;-71
2023/05/24 05:11:30;;;;;;;19.60;4.65;;;10.00;99.90;;;;;;5044965;28;20050;-71
2023/05/24 05:13:55;;;;;;;23.75;4.05;;;10.10;99.90;;;;;;5049864;28;20041;-71
2023/05/24 05:16:21;;;;;;;15.70;3.85;;;10.10;99.90;;;;;;5042825;28;20389;-70
2023/05/24 05:18:47;;;;;;;19.48;4.82;;;10.10;99.90;;;;;;5038106;28;20342;-70
2023/05/24 05:21:12;;;;;;;15.48;3.85;;;10.10;99.90;;;;;;5059881;28;20737;-70
2023/05/24 05:23:38;;;;;;;19.55;4.45;;;10.10;99.90;;;;;;5049859;28;20036;-71
2023/05/24 05:26:06;;;;;;;20.02;4.20;;;10.10;99.90;;;;;;5050600;28;20147;-70
2023/05/24 05:28:31;;;;;;;14.50;3.58;;;10.10;99.90;;;;;;5032976;28;20041;-70
2023/05/24 05:30:57;;;;;;;16.40;4.15;;;10.10;99.90;;;;;;5037776;28;20048;-70
2023/05/24 05:33:23;;;;;;;17.58;4.35;;;10.10;99.90;;;;;;5049684;28;20436;-71
2023/05/24 05:35:49;;;;;;;18.05;3.90;;;10.10;99.90;;;;;;5032311;28;20045;-71
2023/05/24 05:38:15;;;;;;;16.52;4.65;;;10.20;99.90;;;;;;5043994;28;20141;-71
2023/05/24 05:40:40;;;;;;;17.23;4.20;;;10.20;99.90;;;;;;5041380;28;20425;-70
2023/05/24 05:43:07;;;;;;;14.38;4.05;;;10.20;99.90;;;;;;5038407;28;20497;-70
2023/05/24 05:45:33;;;;;;;16.98;4.50;;;10.30;99.90;;;;;;5051846;28;20416;-70
2023/05/24 05:47:59;;;;;;;18.13;4.35;;;10.40;99.90;;;;;;5052712;28;20116;-70
2023/05/24 05:50:25;;;;;;;17.80;4.28;;;10.40;99.90;;;;;;5048962;28;20052;-71
2023/05/24 05:52:50;;;;;;;20.17;4.30;;;10.50;99.90;;;;;;5052084;28;20048;-71
2023/05/24 05:55:16;;;;;;;17.52;4.63;;;10.60;99.90;;;;;;5039712;28;20103;-71
2023/05/24 05:57:42;;;;;;;20.27;3.90;;;10.70;99.90;;;;;;5038461;28;20099;-71
2023/05/24 06:00:08;;;;;;;17.55;3.92;;;10.80;99.90;;;;;;5033661;28;20125;-70
2023/05/24 06:02:34;;;;;;;23.67;4.53;;;10.90;99.90;;;;;;5045709;28;20068;-71
2023/05/24 06:05:00;;;;;;;16.15;4.07;;;11.10;99.90;;;;;;5044535;28;20068;-70
2023/05/24 06:07:25;;;;;;;16.98;4.43;;;11.20;99.90;;;;;;5049598;28;20040;-70
2023/05/24 06:09:51;;;;;;;19.83;4.15;;;11.30;99.90;;;;;;5046399;28;20125;-70
2023/05/24 06:12:16;;;;;;;18.55;4.55;;;11.40;99.90;;;;;;5050000;28;20041;-70
2023/05/24 06:14:43;;;;;;;15.88;4.05;;;11.60;99.90;;;;;;5053240;28;20079;-71
2023/05/24 06:17:08;;;;;;;14.75;4.40;;;11.70;99.90;;;;;;5033182;28;20470;-71
2023/05/24 06:19:34;;;;;;;17.42;4.70;;;11.80;99.90;;;;;;5048668;28;20051;-70
2023/05/24 06:22:00;;;;;;;22.77;5.10;;;11.80;99.90;;;;;;5048456;28;20037;-71
2023/05/24 06:24:27;;;;;;;18.30;4.40;;;11.90;99.90;;;;;;5036012;28;20037;-71
2023/05/24 06:26:53;;;;;;;14.60;4.10;;;11.80;99.90;;;;;;5051166;28;20440;-71
2023/05/24 06:29:20;;;;;;;17.85;3.67;;;11.90;99.90;;;;;;5048815;28;20041;-71
2023/05/24 06:31:46;;;;;;;15.70;3.95;;;11.90;99.90;;;;;;5040905;28;20048;-71
2023/05/24 06:34:15;;;;;;;18.17;4.03;;;11.90;99.90;;;;;;5056740;28;20045;-71
2023/05/24 06:36:41;;;;;;;18.17;3.65;;;11.90;99.90;;;;;;5039193;28;20037;-70
2023/05/24 06:39:11;;;;;;;17.33;4.22;;;12.00;99.90;;;;;;5047258;28;20505;-71
2023/05/24 06:41:37;;;;;;;16.25;3.70;;;12.00;99.90;;;;;;5049361;28;20068;-71
2023/05/24 06:44:03;;;;;;;18.75;4.45;;;12.20;99.90;;;;;;5052997;28;20044;-71
2023/05/24 06:46:29;;;;;;;18.50;4.25;;;12.20;99.90;;;;;;5055414;28;20038;-72
2023/05/24 06:48:55;;;;;;;23.70;4.75;;;12.10;99.90;;;;;;5037583;28;20037;-71
2023/05/24 06:51:20;;;;;;;14.70;3.75;;;12.10;99.90;;;;;;5034015;28;20124;-71
2023/05/24 06:53:46;;;;;;;14.70;3.80;;;12.00;99.90;;;;;;5049538;28;20424;-70
2023/05/24 06:56:11;;;;;;;15.13;3.67;;;12.00;99.90;;;;;;5049129;28;20392;-77
2023/05/24 06:58:37;;;;;;;18.73;4.47;;;12.00;99.90;;;;;;5051505;28;20486;-76
2023/05/24 07:01:03;;;;;;;16.25;3.92;;;12.00;99.90;;;;;;5051365;28;20563;-77
2023/05/24 07:03:30;;;;;;;16.60;4.13;;;12.10;99.90;;;;;;5035599;28;20079;-71
2023/05/24 07:05:57;;;;;;;16.58;4.20;;;12.20;99.90;;;;;;5036480;28;20512;-71
2023/05/24 07:08:26;;;;;;;13.48;3.30;;;12.50;99.90;;;;;;5049262;28;20127;-71
2023/05/24 07:10:55;;;;;;;13.02;3.35;;;12.70;99.90;;;;;;5041479;28;20072;-71
2023/05/24 07:13:21;;;;;;;16.10;3.47;;;13.00;99.90;;;;;;5043206;28;20095;-71
2023/05/24 07:15:47;;;;;;;15.90;3.92;;;13.10;99.90;;;;;;5047569;28;20437;-71
2023/05/24 07:18:13;;;;;;;13.07;3.25;;;13.10;99.90;;;;;;5052835;28;20088;-71
2023/05/24 07:20:39;;;;;;;14.32;3.10;;;13.00;99.90;;;;;;5036360;28;20049;-71
2023/05/24 07:23:05;;;;;;;13.32;3.30;;;12.90;99.90;;;;;;5041530;28;20095;-71
2023/05/24 07:25:32;;;;;;;18.05;3.47;;;12.90;99.90;;;;;;5052163;28;20048;-71
2023/05/24 07:27:58;;;;;;;13.55;3.03;;;12.90;99.90;;;;;;5044959;28;20065;-72
2023/05/24 07:30:24;;;;;;;13.15;3.92;;;13.00;99.90;;;;;;5049773;28;20482;-72
2023/05/24 07:32:50;;;;;;;16.27;3.38;;;13.00;99.90;;;;;;5052877;28;20036;-72
2023/05/24 07:35:16;;;;;;;16.00;3.63;;;13.00;99.90;;;;;;5048265;28;20025;-71
2023/05/24 07:37:41;;;;;;;16.70;3.72;;;12.90;99.90;;;;;;5044066;28;20439;-71
2023/05/24 07:40:11;;;;;;;16.55;3.85;;;12.70;99.90;;;;;;5039064;28;20071;-75
2023/05/24 07:42:37;;;;;;;13.80;3.72;;;12.70;99.90;;;;;;5036412;28;20124;-76
2023/05/24 07:45:05;;;;;;;16.75;3.38;;;12.90;99.90;;;;;;5045523;28;20048;-72
2023/05/24 07:47:31;;;;;;;18.52;3.85;;;13.00;99.90;;;;;;5053980;28;20040;-71
2023/05/24 07:49:57;;;;;;;14.57;3.65;;;13.20;99.90;;;;;;5053280;28;20114;-72
2023/05/24 07:52:23;;;;;;;15.57;3.78;;;13.10;99.90;;;;;;5051695;28;20041;-72
2023/05/24 07:54:49;;;;;;;14.98;3.63;;;13.00;99.90;;;;;;5051420;28;20549;-72
2023/05/24 07:57:14;;;;;;;20.55;4.35;;;13.00;99.90;;;;;;5043781;28;20132;-72
2023/05/24 07:59:40;;;;;;;13.00;3.03;;;12.80;99.90;;;;;;5051396;28;20417;-71
2023/05/24 08:02:10;;;;;;;13.13;3.05;;;12.80;99.90;;;;;;5048761;28;20132;-72
2023/05/24 08:04:35;;;;;;;16.98;3.42;;;12.80;99.90;;;;;;5045282;28;20055;-72
2023/05/24 08:07:02;;;;;;;15.20;3.42;;;12.70;99.90;;;;;;5047995;28;20045;-71
2023/05/24 08:09:34;;;;;;;13.93;3.38;;;12.70;99.90;;;;;;5051126;28;20045;-71
2023/05/24 08:12:00;;;;;;;;;;;12.70;99.90;;;;;;5054100;28;20044;-72
2023/05/24 08:14:26;;;;;;;13.43;3.50;;;12.70;99.90;;;;;;5034679;28;19917;-72
2023/05/24 08:16:51;;;;;;;14.40;3.55;;;12.70;99.90;;;;;;5051842;28;20064;-72
2023/05/24 08:19:17;;;;;;;18.65;3.72;;;12.70;99.90;;;;;;5037524;28;20041;-72
2023/05/24 08:21:42;;;;;;;14.13;3.17;;;12.80;99.90;;;;;;5053798;28;20033;-70
2023/05/24 08:24:11;;;;;;;15.75;3.83;;;12.90;99.90;;;;;;5028787;28;20037;-71
2023/05/24 08:26:37;;;;;;;12.25;3.30;;;12.90;99.90;;;;;;5050366;28;20050;-71
2023/05/24 08:29:03;;;;;;;15.32;3.28;;;12.90;99.90;;;;;;5035403;28;20040;-72
2023/05/24 08:31:31;;;;;;;17.85;3.80;;;12.90;99.90;;;;;;5033667;28;20041;-73
2023/05/24 08:33:57;;;;;;;16.27;3.67;;;12.90;99.90;;;;;;5034782;28;20052;-70
2023/05/24 08:36:22;;;;;;;13.00;3.20;;;13.00;99.90;;;;;;5048857;28;20037;-71
2023/05/24 08:38:48;;;;;;;17.88;3.83;;;13.00;99.90;;;;;;5043603;28;20493;-72
2023/05/24 08:41:14;;;;;;;14.32;3.58;;;13.10;99.90;;;;;;5034841;28;20048;-72
2023/05/24 08:43:41;;;;;;;12.68;3.20;;;13.20;99.90;;;;;;5052902;28;20112;-71
2023/05/24 08:46:08;;;;;;;11.30;3.15;;;13.30;99.90;;;;;;5053876;28;20071;-72
2023/05/24 08:48:40;;;;;;;12.63;3.70;;;13.60;99.90;;;;;;5029048;28;20094;-72
2023/05/24 08:51:06;;;;;;;13.35;3.50;;;13.90;99.90;;;;;;5068258;28;20090;-71
2023/05/24 08:53:35;;;;;;;13.70;3.00;;;14.20;99.90;;;;;;5050487;28;20071;-72
2023/05/24 08:56:02;;;;;;;12.82;2.88;;;14.40;99.90;;;;;;5025955;28;20550;-72
2023/05/24 08:58:29;;;;;;;9.40;3.13;;;14.40;99.90;;;;;;5049551;28;20037;-72
2023/05/24 09:00:55;;;;;;;9.95;2.90;;;14.40;99.90;;;;;;5035376;28;20552;-72
2023/05/24 09:03:22;;;;;;;9.07;2.55;;;14.30;99.90;;;;;;5032113;28;20077;-72
2023/05/24 09:05:48;;;;;;;10.07;2.80;;;14.30;99.90;;;;;;5040441;28;20041;-72
2023/05/24 09:08:16;;;;;;;12.48;3.33;;;14.30;99.90;;;;;;5037088;28;20045;-72
2023/05/24 09:10:43;;;;;;;12.52;2.88;;;14.30;99.90;;;;;;5035808;28;20041;-72
2023/05/24 09:13:10;;;;;;;8.82;2.40;;;14.30;99.90;;;;;;5052100;28;20040;-72
2023/05/24 09:15:36;;;;;;;10.30;2.50;;;14.50;99.90;;;;;;5049154;28;20099;-70
2023/05/24 09:18:02;;;;;;;10.25;2.55;;;14.60;99.90;;;;;;5039098;28;20489;-71
2023/05/24 09:20:28;;;;;;;8.48;2.15;;;14.70;99.90;;;;;;5041979;28;20047;-72
2023/05/24 09:22:56;;;;;;;10.95;2.90;;;14.80;99.90;;;;;;5035908;28;20039;-72
2023/05/24 09:25:22;;;;;;;10.13;2.40;;;14.90;99.90;;;;;;5032791;28;20509;-72
2023/05/24 09:27:52;;;;;;;8.63;2.90;;;14.80;99.90;;;;;;5050102;28;20796;-71
2023/05/24 09:30:18;;;;;;;8.73;2.90;;;14.70;99.90;;;;;;5050701;28;20045;-72
2023/05/24 09:32:58;;;;;;;10.38;2.85;;;14.60;99.90;;;;;;5052803;28;20033;-72
2023/05/24 09:35:25;;;;;;;12.27;2.88;;;14.70;99.90;;;;;;5052489;28;20068;-70
2023/05/24 09:37:58;;;;;;;12.30;3.58;;;14.70;99.90;;;;;;5040791;28;20037;-71
2023/05/24 09:40:25;;;;;;;7.45;2.40;;;14.70;99.90;;;;;;5041285;28;20049;-71
2023/05/24 09:43:08;;;;;;;11.85;2.90;;;14.70;99.90;;;;;;5033615;28;20037;-71
2023/05/24 09:46:04;;;;;;;10.65;2.80;;;14.70;99.90;;;;;;5044489;28;20133;-72
2023/05/24 09:48:30;;;;;;;12.10;2.88;;;14.70;99.90;;;;;;5043792;28;20111;-71
2023/05/24 09:51:03;;;;;;;8.15;2.50;;;14.70;99.90;;;;;;5034898;28;20045;-72
2023/05/24 09:53:29;;;;;;;11.63;3.25;;;14.80;99.90;;;;;;5032245;28;20087;-72
2023/05/24 09:55:55;;;;;;;12.82;2.97;;;14.70;99.90;;;;;;5036421;28;20045;-72
2023/05/24 09:58:21;;;;;;;11.63;2.90;;;14.80;99.90;;;;;;5032023;28;20120;-72
2023/05/24 10:00:47;;;;;;;11.95;3.15;;;14.80;99.90;;;;;;5037326;28;20064;-72
2023/05/24 10:03:13;;;;;;;13.45;3.67;;;15.00;99.90;;;;;;5043986;28;20053;-72
2023/05/24 10:05:44;;;;;;;15.60;3.38;;;15.00;99.90;;;;;;5053141;28;20084;-72
2023/05/24 10:08:11;;;;;;;14.02;2.85;;;14.80;99.90;;;;;;5051971;28;20053;-73
2023/05/24 10:10:36;;;;;;;14.23;3.60;;;14.80;99.90;;;;;;5032306;28;20051;-71
2023/05/24 10:13:02;;;;;;;15.07;3.20;;;15.00;99.90;;;;;;5050301;28;20037;-73
2023/05/24 10:15:29;;;;;;;12.60;3.20;;;15.20;99.90;;;;;;5043321;28;20034;-72
2023/05/24 10:17:56;;;;;;;12.70;2.92;;;15.00;99.90;;;;;;5033686;28;20037;-73
2023/05/24 10:20:23;;;;;;;15.75;3.42;;;14.90;99.90;;;;;;5045395;28;21949;-73
2023/05/24 10:22:56;;;;;;;13.45;3.63;;;14.80;99.90;;;;;;5052973;28;20051;-72
2023/05/24 10:25:26;;;;;;;12.35;3.10;;;14.70;99.90;;;;;;5067014;28;20124;-73
2023/05/24 10:28:00;;;;;;;15.55;3.58;;;14.80;99.90;;;;;;5049091;28;20401;-73
2023/05/24 10:30:34;;;;;;;9.88;2.78;;;14.80;99.90;;;;;;5048536;28;20095;-73
2023/05/24 10:33:01;;;;;;;13.05;2.67;;;14.80;99.90;;;;;;5051726;28;20041;-73
2023/05/24 10:35:28;;;;;;;9.40;2.88;;;14.70;99.90;;;;;;5051989;28;20045;-73
2023/05/24 10:37:54;;;;;;;11.65;2.60;;;14.70;99.90;;;;;;5053064;28;20154;-73
2023/05/24 10:40:24;;;;;;;9.80;2.80;;;14.50;99.90;;;;;;5051469;28;20560;-72
2023/05/24 10:42:50;;;;;;;10.68;2.67;;;14.50;99.90;;;;;;5051615;28;20125;-73
2023/05/24 10:45:40;;;;;;;10.77;3.13;;;14.60;99.90;;;;;;5048497;28;20190;-73
2023/05/24 10:48:12;;;;;;;12.65;3.08;;;14.80;99.90;;;;;;5052383;28;20453;-73
2023/05/24 10:50:41;;;;;;;10.63;2.72;;;15.00;99.90;;;;;;5052755;28;20128;-73
2023/05/24 10:53:17;;;;;;;8.75;2.55;;;15.20;99.90;;;;;;5019985;28;20510;-72
2023/05/24 10:56:02;;;;;;;9.00;2.67;;;15.20;99.90;;;;;;5035532;28;20077;-73
2023/05/24 10:58:57;;;;;;;9.90;2.80;;;15.10;99.90;;;;;;5035667;28;20034;-73
2023/05/24 11:01:31;;;;;;;10.65;2.67;;;15.20;99.90;;;;;;5042777;28;20041;-73
2023/05/24 11:04:10;;;;;;;7.43;2.58;;;15.00;99.90;;;;;;5055537;28;20063;-72
2023/05/24 11:06:47;;;;;;;7.25;2.45;;;14.90;99.90;;;;;;5055272;28;20098;-73
2023/05/24 11:09:13;;;;;;;8.68;2.60;;;15.00;99.90;;;;;;5055528;28;20056;-73
2023/05/24 11:11:44;;;;;;;13.02;3.20;;;15.00;99.90;;;;;;5054603;28;20053;-76
2023/05/24 11:14:10;;;;;;;12.57;2.67;;;14.90;99.90;;;;;;5042357;28;20065;-73
2023/05/24 11:16:38;;;;;;;12.80;3.55;;;14.80;99.90;;;;;;5035048;28;20488;-73
2023/05/24 11:19:22;;;;;;;13.50;2.97;;;14.60;99.90;;;;;;5041101;28;20029;-73
2023/05/24 11:21:49;;;;;;;9.50;3.22;;;14.30;99.90;;;;;;5052570;28;20041;-73
2023/05/24 11:24:16;;;;;;;11.73;3.25;;;14.10;99.90;;;;;;5036746;28;20502;-73
2023/05/24 11:26:43;;;;;;;12.05;3.15;;;14.20;99.90;;;;;;5038973;28;20541;-73
2023/05/24 11:29:12;;;;;;;11.18;2.92;;;14.00;99.90;;;;;;5037409;28;20397;-73
2023/05/24 11:31:38;;;;;;;12.68;3.15;;;14.10;99.90;;;;;;5037933;28;20402;-73
2023/05/24 11:34:08;;;;;;;11.38;3.65;;;13.90;99.90;;;;;;5035139;28;20073;-73
2023/05/24 11:36:35;;;;;;;15.82;3.67;;;13.90;99.90;;;;;;5043965;28;20048;-73
2023/05/24 11:39:02;;;;;;;12.65;3.17;;;13.90;99.90;;;;;;5043501;28;20045;-73
2023/05/24 11:41:28;;;;;;;13.57;3.28;;;13.90;99.90;;;;;;5051915;28;20447;-73
2023/05/24 11:43:53;;;;;;;13.63;3.78;;;13.90;99.90;;;;;;5056041;28;20041;-73
2023/05/24 11:46:19;;;;;;;12.65;3.53;;;13.90;99.90;;;;;;5071523;28;20072;-73
2023/05/24 11:48:55;;;;;;;15.00;3.30;;;13.90;99.90;;;;;;5036966;28;20040;-73
2023/05/24 11:51:27;;;;;;;12.98;3.55;;;14.00;99.90;;;;;;5055579;28;20390;-73
2023/05/24 11:53:53;;;;;;;12.18;3.10;;;14.00;99.90;;;;;;5048921;28;20187;-73
2023/05/24 11:56:20;;;;;;;12.88;3.47;;;14.00;99.90;;;;;;5050117;28;20111;-71
2023/05/24 11:58:51;;;;;;;20.05;3.75;;;14.10;99.90;;;;;;5043443;28;20041;-71
2023/05/24 12:01:24;;;;;;;16.20;3.75;;;14.10;99.90;;;;;;5054134;28;20052;-71
2023/05/24 12:03:52;;;;;;;13.07;3.55;;;14.10;99.90;;;;;;5047456;28;20033;-72
2023/05/24 12:06:18;;;;;;;10.57;3.13;;;14.10;99.90;;;;;;5060482;28;20067;-72
2023/05/24 12:08:44;;;;;;;11.85;2.97;;;14.10;99.90;;;;;;5045736;28;20133;-72
2023/05/24 12:11:10;;;;;;;9.68;2.95;;;14.00;99.90;;;;;;5035434;28;20047;-72
2023/05/24 12:13:36;;;;;;;11.90;3.15;;;14.10;99.90;;;;;;5049388;28;20388;-72
2023/05/24 12:16:02;;;;;;;13.65;3.33;;;14.10;99.90;;;;;;5052787;28;20041;-72
2023/05/24 12:18:28;;;;;;;12.00;2.90;;;14.20;99.90;;;;;;5058712;28;20041;-72
2023/05/24 12:20:54;;;;;;;14.40;3.28;;;14.40;99.90;;;;;;5034266;28;20045;-71
2023/05/24 12:23:22;;;;;;;14.00;3.10;;;14.40;99.90;;;;;;5036916;28;20033;-72
2023/05/24 12:25:48;;;;;;;11.77;3.03;;;14.50;99.90;;;;;;5034146;28;20052;-72
2023/05/24 12:28:15;;;;;;;10.98;2.88;;;14.50;99.90;;;;;;5047651;28;20060;-72
2023/05/24 12:30:43;;;;;;;8.18;2.80;;;14.40;99.90;;;;;;5039551;28;20051;-71
2023/05/24 12:33:09;;;;;;;10.88;3.15;;;14.40;99.90;;;;;;5051378;28;20041;-71
2023/05/24 12:35:35;;;;;;;13.02;3.03;;;14.30;99.90;;;;;;5051384;28;20397;-73
2023/05/24 12:38:01;;;;;;;12.30;3.10;;;14.30;99.90;;;;;;5036127;28;20041;-73
2023/05/24 12:40:26;;;;;;;12.48;3.08;;;14.40;99.90;;;;;;5040138;28;20036;-73
2023/05/24 12:42:54;;;;;;;10.80;2.88;;;14.40;99.90;;;;;;5045850;28;20048;-73
2023/05/24 12:45:23;;;;;;;10.68;2.72;;;14.40;99.90;;;;;;5054626;28;20387;-73